Terminal Aerodrome Forecast
Issued by NWS Twin Cities, MN

Home | Current Version | Previous Version | Text Only | Print | Product List | Glossary Off
Versions: 1 2 3 4 5 6 7 8 9 10 11 12 13 14

000
FTUS43 KMPX 181400 AAA
TAFEAU
TAF AMD
KEAU 181403Z 1814/1912 VRB02KT P6SM BKN008 OVC015
     FM181600 VRB02KT P6SM BKN012 OVC020
     FM182300 VRB02KT P6SM SCT020 BKN150=

USA.gov is the U.S. government's official web portal to all federal, state and local government web resources and services.